createdAt,value
2022-09-17T00:02:10.241Z,10.05
2022-09-17T00:04:36.826Z,10.02
2022-09-17T00:07:04.221Z,10.01
2022-09-17T00:09:30.916Z,9.97
2022-09-17T00:11:57.374Z,9.94
2022-09-17T00:14:23.806Z,9.94
2022-09-17T00:16:50.261Z,9.93
2022-09-17T00:19:19.945Z,9.94
2022-09-17T00:21:47.353Z,9.96
2022-09-17T00:24:14.887Z,9.96
2022-09-17T00:26:41.880Z,9.98
2022-09-17T00:29:08.786Z,10.03
2022-09-17T00:31:35.790Z,10.05
2022-09-17T00:34:03.964Z,10.03
2022-09-17T00:36:31.017Z,10.01
2022-09-17T00:38:58.931Z,9.98
2022-09-17T00:41:29.155Z,9.95
2022-09-17T00:43:58.099Z,9.93
2022-09-17T00:46:39.066Z,9.88
2022-09-17T00:49:16.610Z,9.81
2022-09-17T00:51:59.648Z,9.79
2022-09-17T00:54:27.656Z,9.78
2022-09-17T00:56:54.086Z,9.78
2022-09-17T00:59:22.363Z,9.79
2022-09-17T01:01:48.968Z,9.78
2022-09-17T01:04:19.805Z,9.80
2022-09-17T01:07:34.071Z,9.78
2022-09-17T01:10:16.740Z,9.78
2022-09-17T01:13:01.895Z,9.79
2022-09-17T01:15:59.144Z,9.79
2022-09-17T01:18:32.124Z,9.76
2022-09-17T01:21:28.023Z,9.75
2022-09-17T01:24:11.985Z,9.68
2022-09-17T01:26:53.126Z,9.67
2022-09-17T01:29:34.016Z,9.63
2022-09-17T01:32:07.649Z,9.62
2022-09-17T01:34:45.588Z,9.60
2022-09-17T01:37:25.882Z,9.57
2022-09-17T01:40:29.659Z,9.56
2022-09-17T01:43:08.212Z,9.56
2022-09-17T01:45:55.267Z,9.55
2022-09-17T01:48:29.482Z,9.59
2022-09-17T01:51:08.789Z,9.58
2022-09-17T01:53:42.306Z,9.59
2022-09-17T01:56:13.325Z,9.63
2022-09-17T01:58:47.567Z,9.64
2022-09-17T02:01:18.079Z,9.66
2022-09-17T02:03:56.728Z,9.67
2022-09-17T02:06:29.874Z,9.71
2022-09-17T02:09:09.999Z,9.65
2022-09-17T02:11:41.240Z,9.67
2022-09-17T02:14:19.164Z,9.66
2022-09-17T02:16:51.924Z,9.68
2022-09-17T02:19:26.989Z,9.66
2022-09-17T02:22:11.822Z,9.68
2022-09-17T02:25:04.557Z,9.69
2022-09-17T02:27:51.955Z,9.69
2022-09-17T02:30:18.689Z,9.65
2022-09-17T02:32:45.129Z,9.55
2022-09-17T02:35:13.837Z,9.65
2022-09-17T02:37:42.114Z,9.61
2022-09-17T02:40:10.556Z,9.64
2022-09-17T02:43:04.937Z,9.61
2022-09-17T02:45:49.589Z,9.57
2022-09-17T02:48:33.284Z,9.57
2022-09-17T02:51:26.204Z,9.55
2022-09-17T02:54:12.122Z,9.58
2022-09-17T02:56:56.344Z,9.60
2022-09-17T02:59:29.400Z,9.57
2022-09-17T03:02:12.820Z,9.58
2022-09-17T03:04:41.294Z,9.56
2022-09-17T03:07:11.915Z,9.54
2022-09-17T03:09:38.865Z,9.46
2022-09-17T03:12:05.622Z,9.49
2022-09-17T03:14:32.070Z,9.48
2022-09-17T03:16:58.564Z,9.47
2022-09-17T03:19:25.026Z,9.45
2022-09-17T03:21:51.496Z,9.42
2022-09-17T03:24:17.818Z,9.45
2022-09-17T03:26:44.425Z,9.43
2022-09-17T03:29:10.761Z,9.40
2022-09-17T03:31:37.182Z,9.37
2022-09-17T03:34:03.658Z,9.33
2022-09-17T03:36:30.053Z,9.28
2022-09-17T03:38:57.432Z,9.27
2022-09-17T03:41:24.941Z,9.25
2022-09-17T03:43:51.386Z,9.24
2022-09-17T03:46:18.560Z,9.26
2022-09-17T03:48:45.226Z,9.23
2022-09-17T03:51:12.279Z,9.21
2022-09-17T03:53:38.674Z,9.17
2022-09-17T03:56:06.893Z,9.17
2022-09-17T03:58:33.622Z,9.16
2022-09-17T04:01:00.271Z,9.15
2022-09-17T04:03:28.174Z,9.16
2022-09-17T04:05:54.797Z,9.17
2022-09-17T04:08:21.826Z,9.17
2022-09-17T04:10:48.828Z,9.18
2022-09-17T04:13:16.790Z,9.16
2022-09-17T04:15:43.364Z,9.17
2022-09-17T04:18:10.101Z,9.16
2022-09-17T04:20:36.494Z,9.16
2022-09-17T04:23:03.066Z,9.17
2022-09-17T04:25:29.462Z,9.17
2022-09-17T04:27:55.781Z,9.15
2022-09-17T04:30:23.013Z,9.11
2022-09-17T04:32:49.446Z,9.09
2022-09-17T04:35:16.011Z,9.07
2022-09-17T04:37:42.397Z,9.07
2022-09-17T04:40:09.489Z,9.05
2022-09-17T04:42:35.895Z,9.03
2022-09-17T04:45:02.249Z,9.03
2022-09-17T04:47:28.588Z,9.00
2022-09-17T04:49:54.918Z,8.99
2022-09-17T04:52:21.275Z,8.97
2022-09-17T04:54:47.622Z,8.97
2022-09-17T04:57:13.953Z,8.96
2022-09-17T04:59:40.278Z,8.94
2022-09-17T05:02:06.619Z,8.95
2022-09-17T05:04:33.005Z,8.97
2022-09-17T05:07:00.217Z,8.99
2022-09-17T05:09:26.963Z,8.99
2022-09-17T05:11:53.276Z,8.98
2022-09-17T05:14:19.609Z,8.97
2022-09-17T05:16:45.953Z,8.97
2022-09-17T05:19:12.316Z,8.96
2022-09-17T05:21:38.646Z,8.92
2022-09-17T05:24:05.121Z,8.92
2022-09-17T05:26:31.494Z,8.88
2022-09-17T05:28:58.006Z,8.89
2022-09-17T05:31:24.705Z,8.89
2022-09-17T05:33:51.179Z,8.88
2022-09-17T05:36:17.511Z,8.88
2022-09-17T05:38:43.895Z,8.90
2022-09-17T05:41:10.247Z,8.90
2022-09-17T05:43:36.592Z,8.89
2022-09-17T05:46:04.390Z,8.85
2022-09-17T05:48:30.774Z,8.85
2022-09-17T05:50:57.246Z,8.84
2022-09-17T05:53:23.929Z,8.80
2022-09-17T05:55:50.254Z,8.80
2022-09-17T05:58:19.178Z,8.82
2022-09-17T06:00:48.884Z,8.80
2022-09-17T06:03:17.637Z,8.78
2022-09-17T06:05:52.147Z,8.80
2022-09-17T06:08:18.604Z,8.78
2022-09-17T06:10:44.956Z,8.80
2022-09-17T06:13:11.401Z,8.81
2022-09-17T06:15:37.799Z,8.80
2022-09-17T06:18:04.172Z,8.80
2022-09-17T06:20:30.530Z,8.80
2022-09-17T06:22:57.732Z,8.75
2022-09-17T06:25:25.238Z,8.72
2022-09-17T06:27:51.815Z,8.72
2022-09-17T06:30:18.284Z,8.74
2022-09-17T06:32:44.585Z,8.75
2022-09-17T06:35:10.918Z,8.76
2022-09-17T06:37:40.212Z,8.77
2022-09-17T06:40:08.347Z,8.78
2022-09-17T06:42:34.845Z,8.75
2022-09-17T06:45:06.979Z,8.76
2022-09-17T06:47:35.005Z,8.77
2022-09-17T06:50:01.711Z,8.76
2022-09-17T06:52:28.223Z,8.76
2022-09-17T06:54:54.562Z,8.73
2022-09-17T06:57:20.953Z,8.77
2022-09-17T06:59:47.316Z,8.78
2022-09-17T07:02:13.718Z,8.76
2022-09-17T07:04:40.175Z,8.77
2022-09-17T07:07:06.550Z,8.79
2022-09-17T07:09:32.873Z,8.79
2022-09-17T07:11:59.436Z,8.82
2022-09-17T07:14:25.805Z,8.90
2022-09-17T07:16:52.642Z,8.96
2022-09-17T07:19:19.010Z,9.04
2022-09-17T07:21:48.409Z,9.13
2022-09-17T07:24:14.740Z,9.18
2022-09-17T07:26:41.122Z,9.25
2022-09-17T07:29:07.965Z,9.32
2022-09-17T07:31:34.397Z,9.41
2022-09-17T07:34:01.623Z,9.45
2022-09-17T07:36:28.056Z,9.42
2022-09-17T07:38:54.383Z,9.37
2022-09-17T07:41:20.724Z,9.32
2022-09-17T07:43:47.114Z,9.24
2022-09-17T07:46:19.128Z,9.12
2022-09-17T07:48:46.672Z,9.09
2022-09-17T07:51:21.940Z,9.02
2022-09-17T07:53:55.163Z,8.96
2022-09-17T07:56:22.617Z,8.92
2022-09-17T07:58:49.198Z,8.87
2022-09-17T08:01:17.140Z,8.84
2022-09-17T08:03:48.619Z,8.83
2022-09-17T08:06:17.666Z,8.82
2022-09-17T08:08:44.077Z,8.86
2022-09-17T08:11:38.228Z,8.89
2022-09-17T08:14:05.505Z,8.85
2022-09-17T08:16:32.152Z,8.81
2022-09-17T08:18:58.695Z,8.84
2022-09-17T08:21:25.358Z,8.87
2022-09-17T08:23:51.850Z,8.93
2022-09-17T08:26:22.599Z,8.97
2022-09-17T08:28:55.451Z,9.01
2022-09-17T08:31:24.230Z,9.05
2022-09-17T08:33:51.089Z,9.08
2022-09-17T08:36:19.162Z,9.12
2022-09-17T08:38:46.099Z,9.09
2022-09-17T08:41:52.609Z,9.18
2022-09-17T08:44:39.145Z,9.18
2022-09-17T08:47:18.343Z,9.14
2022-09-17T08:49:52.121Z,9.10
2022-09-17T08:52:34.436Z,9.09
2022-09-17T08:55:31.269Z,9.09
2022-09-17T08:58:27.236Z,9.11
2022-09-17T09:01:07.888Z,9.15
2022-09-17T09:04:00.501Z,9.25
2022-09-17T09:06:31.810Z,9.37
2022-09-17T09:09:03.983Z,9.41
2022-09-17T09:11:31.398Z,9.27
2022-09-17T09:14:20.089Z,9.29
2022-09-17T09:16:48.216Z,9.29
2022-09-17T09:19:21.811Z,9.32
2022-09-17T09:22:05.869Z,9.29
2022-09-17T09:25:03.169Z,9.26
2022-09-17T09:27:37.365Z,9.20
2022-09-17T09:30:09.650Z,9.21
2022-09-17T09:32:50.486Z,9.22
2022-09-17T09:35:20.860Z,9.31
2022-09-17T09:37:57.110Z,9.39
2022-09-17T09:40:36.065Z,9.49
2022-09-17T09:43:16.253Z,9.61
2022-09-17T09:46:00.285Z,9.70
2022-09-17T09:48:48.070Z,9.66
2022-09-17T09:51:33.207Z,9.58
2022-09-17T09:54:32.298Z,9.58
2022-09-17T09:57:07.435Z,9.65
2022-09-17T09:59:35.916Z,9.76
2022-09-17T10:02:03.018Z,9.79
2022-09-17T10:04:32.175Z,9.77
2022-09-17T10:07:11.394Z,9.75
2022-09-17T10:09:44.798Z,9.75
2022-09-17T10:12:11.084Z,9.76
2022-09-17T10:14:39.241Z,9.85
2022-09-17T10:17:26.083Z,9.93
2022-09-17T10:20:12.102Z,10.01
2022-09-17T10:22:44.585Z,10.12
2022-09-17T10:25:30.378Z,10.24
2022-09-17T10:27:59.754Z,10.32
2022-09-17T10:30:27.429Z,10.25
2022-09-17T10:33:18.682Z,10.42
2022-09-17T10:36:06.258Z,10.77
2022-09-17T10:38:41.281Z,11.02
2022-09-17T10:41:13.854Z,11.22
2022-09-17T10:43:41.376Z,11.31
2022-09-17T10:46:17.192Z,11.30
2022-09-17T10:48:50.805Z,11.24
2022-09-17T10:51:23.923Z,11.18
2022-09-17T10:54:06.048Z,11.17
2022-09-17T10:56:37.631Z,11.02
2022-09-17T10:59:33.922Z,10.88
2022-09-17T11:02:03.294Z,10.77
2022-09-17T11:04:40.206Z,10.70
2022-09-17T11:07:47.626Z,10.77
2022-09-17T11:10:25.116Z,11.05
2022-09-17T11:13:17.656Z,11.34
2022-09-17T11:15:58.324Z,11.51
2022-09-17T11:18:40.866Z,11.57
2022-09-17T11:21:14.708Z,11.80
2022-09-17T11:24:05.581Z,11.82
2022-09-17T11:27:09.401Z,12.12
2022-09-17T11:29:54.631Z,12.43
2022-09-17T11:32:34.458Z,12.69
2022-09-17T11:35:12.816Z,12.89
2022-09-17T11:37:48.836Z,13.02
2022-09-17T11:40:26.572Z,13.27
2022-09-17T11:43:02.510Z,13.48
2022-09-17T11:45:53.500Z,13.50
2022-09-17T11:48:25.313Z,13.26
2022-09-17T11:51:04.766Z,13.01
2022-09-17T11:53:57.530Z,12.95
2022-09-17T11:56:34.042Z,13.49
2022-09-17T11:59:11.364Z,14.05
2022-09-17T12:01:49.323Z,14.57
2022-09-17T12:04:50.498Z,14.94
2022-09-17T12:07:36.277Z,14.95
2022-09-17T12:10:39.881Z,14.66
2022-09-17T12:13:51.418Z,14.28
2022-09-17T12:16:38.930Z,13.89
2022-09-17T12:19:23.467Z,13.54
2022-09-17T12:21:54.882Z,13.12
2022-09-17T12:24:32.111Z,12.72
2022-09-17T12:27:30.504Z,12.57
2022-09-17T12:30:04.834Z,12.30
2022-09-17T12:33:03.110Z,11.99
2022-09-17T12:36:03.401Z,11.60
2022-09-17T12:39:02.647Z,11.14
2022-09-17T12:42:06.164Z,10.75
2022-09-17T12:44:49.224Z,10.39
2022-09-17T12:47:46.397Z,10.16
2022-09-17T12:50:37.883Z,9.94
2022-09-17T12:53:23.240Z,9.79
2022-09-17T12:56:27.955Z,9.75
2022-09-17T12:59:00.569Z,9.81
2022-09-17T13:01:38.815Z,9.91
2022-09-17T13:04:59.491Z,10.22
2022-09-17T13:07:52.508Z,10.62
2022-09-17T13:10:27.036Z,11.11
2022-09-17T13:13:13.129Z,11.32
2022-09-17T13:16:01.365Z,11.60
2022-09-17T13:18:53.490Z,11.80
2022-09-17T13:21:52.800Z,11.92
2022-09-17T13:24:22.516Z,11.99
2022-09-17T13:26:49.246Z,12.07
2022-09-17T13:29:43.675Z,11.99
2022-09-17T13:32:32.820Z,11.83
2022-09-17T13:35:11.531Z,11.83
2022-09-17T13:37:54.966Z,11.80
2022-09-17T13:40:24.335Z,11.78
2022-09-17T13:43:13.836Z,11.83
2022-09-17T13:45:58.537Z,11.69
2022-09-17T13:48:28.651Z,11.50
2022-09-17T13:50:55.444Z,11.32
2022-09-17T13:53:26.893Z,11.16
2022-09-17T13:55:55.899Z,11.04
2022-09-17T13:58:27.623Z,11.06
2022-09-17T14:01:07.734Z,11.34
2022-09-17T14:03:34.249Z,11.46
2022-09-17T14:06:11.105Z,11.40
2022-09-17T14:08:47.843Z,11.39
2022-09-17T14:11:23.608Z,11.46
2022-09-17T14:13:50.991Z,11.46
2022-09-17T14:16:43.211Z,11.43
2022-09-17T14:19:15.424Z,11.41
2022-09-17T14:21:59.551Z,11.32
2022-09-17T14:24:35.076Z,11.07
2022-09-17T14:27:07.538Z,10.78
2022-09-17T14:29:50.167Z,10.68
2022-09-17T14:32:21.710Z,10.66
2022-09-17T14:34:49.628Z,10.68
2022-09-17T14:37:20.564Z,10.87
2022-09-17T14:39:48.926Z,11.20
2022-09-17T14:42:21.686Z,11.69
2022-09-17T14:44:58.717Z,11.96
2022-09-17T14:47:26.856Z,11.99
2022-09-17T14:49:54.312Z,11.88
2022-09-17T14:52:32.574Z,12.27
2022-09-17T14:55:26.470Z,13.05
2022-09-17T14:57:54.998Z,13.38
2022-09-17T15:00:28.224Z,13.32
2022-09-17T15:03:00.373Z,13.49
2022-09-17T15:05:29.622Z,13.65
2022-09-17T15:08:07.471Z,14.01
2022-09-17T15:10:36.898Z,14.22
2022-09-17T15:13:07.118Z,14.29
2022-09-17T15:15:35.016Z,14.29
2022-09-17T15:18:01.379Z,14.21
2022-09-17T15:20:31.163Z,14.38
2022-09-17T15:23:23.598Z,14.41
2022-09-17T15:25:54.694Z,14.51
2022-09-17T15:28:31.005Z,14.47
2022-09-17T15:30:57.555Z,14.04
2022-09-17T15:33:24.450Z,13.56
2022-09-17T15:36:09.546Z,13.14
2022-09-17T15:38:36.787Z,12.85
2022-09-17T15:41:30.977Z,12.58
2022-09-17T15:44:31.390Z,12.37
2022-09-17T15:47:36.711Z,12.77
2022-09-17T15:50:15.705Z,12.47
2022-09-17T15:52:42.532Z,12.06
2022-09-17T15:55:38.174Z,11.68
2022-09-17T15:58:18.906Z,11.39
2022-09-17T16:00:45.605Z,11.23
2022-09-17T16:03:33.955Z,11.16
2022-09-17T16:06:04.002Z,11.09
2022-09-17T16:08:34.917Z,10.91
2022-09-17T16:11:01.279Z,10.85
2022-09-17T16:13:28.779Z,10.91
2022-09-17T16:15:55.315Z,11.04
2022-09-17T16:18:21.698Z,11.07
2022-09-17T16:20:48.065Z,11.03
2022-09-17T16:23:14.491Z,11.29
2022-09-17T16:25:41.734Z,11.33
2022-09-17T16:28:14.225Z,11.22
2022-09-17T16:30:44.009Z,11.05
2022-09-17T16:33:12.106Z,10.86
2022-09-17T16:35:38.620Z,10.74
2022-09-17T16:38:05.205Z,10.58
2022-09-17T16:40:31.669Z,10.55
2022-09-17T16:43:03.085Z,10.50
2022-09-17T16:45:30.323Z,10.46
2022-09-17T16:47:56.744Z,10.26
2022-09-17T16:50:23.902Z,10.35
2022-09-17T16:52:50.648Z,10.25
2022-09-17T16:55:18.105Z,10.22
2022-09-17T16:57:44.637Z,10.15
2022-09-17T17:00:16.071Z,10.09
2022-09-17T17:02:43.814Z,10.20
2022-09-17T17:05:13.089Z,10.22
2022-09-17T17:07:39.502Z,10.13
2022-09-17T17:10:09.392Z,9.99
2022-09-17T17:12:37.405Z,9.90
2022-09-17T17:15:06.120Z,9.84
2022-09-17T17:17:35.526Z,9.82
2022-09-17T17:20:07.637Z,9.77
2022-09-17T17:22:34.161Z,9.74
2022-09-17T17:25:00.634Z,9.72
2022-09-17T17:27:27.063Z,9.71
2022-09-17T17:29:53.423Z,9.69
2022-09-17T17:32:19.834Z,9.66
2022-09-17T17:34:46.196Z,9.66
2022-09-17T17:37:14.212Z,9.64
2022-09-17T17:39:40.960Z,9.61
2022-09-17T17:42:08.003Z,9.60
2022-09-17T17:44:34.542Z,9.62
2022-09-17T17:47:01.850Z,9.60
2022-09-17T17:49:28.261Z,9.60
2022-09-17T17:51:54.664Z,9.60
2022-09-17T17:54:21.936Z,9.60
2022-09-17T17:56:48.613Z,9.65
2022-09-17T17:59:14.956Z,9.68
2022-09-17T18:01:41.352Z,9.68
2022-09-17T18:04:08.379Z,9.69
2022-09-17T18:06:34.833Z,9.69
2022-09-17T18:09:01.709Z,9.73
2022-09-17T18:11:28.598Z,9.76
2022-09-17T18:13:56.897Z,9.78
2022-09-17T18:16:24.358Z,9.80
2022-09-17T18:18:50.772Z,9.78
2022-09-17T18:21:19.429Z,9.75
2022-09-17T18:23:46.766Z,9.68
2022-09-17T18:26:21.453Z,9.54
2022-09-17T18:28:48.490Z,9.40
2022-09-17T18:31:22.125Z,9.27
2022-09-17T18:33:59.928Z,9.18
2022-09-17T18:36:28.416Z,9.11
2022-09-17T18:39:16.722Z,9.10
2022-09-17T18:41:47.636Z,9.09
2022-09-17T18:44:14.023Z,9.07
2022-09-17T18:46:42.416Z,9.01
2022-09-17T18:49:08.899Z,8.99
2022-09-17T18:51:35.310Z,9.00
2022-09-17T18:54:03.051Z,9.00
2022-09-17T18:56:32.880Z,8.99
2022-09-17T18:59:02.392Z,9.00
2022-09-17T19:01:32.503Z,9.03
2022-09-17T19:03:59.694Z,9.05
2022-09-17T19:06:27.613Z,9.07
2022-09-17T19:08:55.765Z,9.02
2022-09-17T19:11:22.084Z,9.06
2022-09-17T19:13:51.248Z,9.01
2022-09-17T19:16:17.767Z,9.06
2022-09-17T19:18:44.270Z,9.04
2022-09-17T19:21:16.066Z,9.05
2022-09-17T19:23:44.765Z,9.00
2022-09-17T19:26:14.050Z,8.98
2022-09-17T19:28:40.654Z,8.90
2022-09-17T19:31:09.524Z,8.94
2022-09-17T19:33:36.192Z,8.93
2022-09-17T19:36:04.787Z,8.92
2022-09-17T19:38:31.474Z,8.97
2022-09-17T19:41:07.117Z,9.00
2022-09-17T19:43:33.641Z,8.98
2022-09-17T19:46:05.555Z,8.98
2022-09-17T19:48:33.086Z,9.01
2022-09-17T19:50:59.474Z,9.03
2022-09-17T19:53:25.903Z,9.04
2022-09-17T19:55:52.332Z,9.04
2022-09-17T19:58:18.771Z,9.05
2022-09-17T20:00:45.219Z,9.06
2022-09-17T20:03:12.328Z,9.06
2022-09-17T20:05:38.748Z,9.05
2022-09-17T20:08:05.184Z,9.04
2022-09-17T20:10:36.330Z,9.04
2022-09-17T20:13:03.260Z,9.06
2022-09-17T20:15:29.688Z,9.04
2022-09-17T20:17:56.055Z,9.01
2022-09-17T20:20:28.156Z,9.02
2022-09-17T20:22:55.861Z,9.00
2022-09-17T20:25:24.030Z,8.97
2022-09-17T20:27:50.434Z,8.94
2022-09-17T20:30:16.843Z,8.89
2022-09-17T20:32:43.190Z,8.86
2022-09-17T20:35:09.526Z,8.82
2022-09-17T20:38:23.203Z,8.78
2022-09-17T20:40:22.291Z,8.71
2022-09-17T20:42:48.739Z,8.64
2022-09-17T20:45:15.079Z,8.57
2022-09-17T20:47:41.714Z,8.50
2022-09-17T20:50:08.368Z,8.42
2022-09-17T20:52:34.734Z,8.39
2022-09-17T20:55:01.094Z,8.30
2022-09-17T20:57:27.477Z,8.24
2022-09-17T20:59:56.657Z,8.18
2022-09-17T21:02:23.134Z,8.16
2022-09-17T21:04:53.556Z,8.13
2022-09-17T21:07:20.516Z,8.15
2022-09-17T21:09:47.175Z,8.12
2022-09-17T21:12:13.565Z,8.11
2022-09-17T21:14:39.939Z,8.12
2022-09-17T21:17:06.408Z,8.12
2022-09-17T21:19:32.837Z,8.12
2022-09-17T21:21:59.174Z,8.12
2022-09-17T21:24:25.606Z,8.09
2022-09-17T21:26:53.963Z,8.08
2022-09-17T21:29:20.705Z,8.10
2022-09-17T21:31:47.274Z,8.09
2022-09-17T21:34:14.180Z,8.07
2022-09-17T21:36:42.051Z,8.10
2022-09-17T21:39:14.578Z,8.08
2022-09-17T21:41:42.952Z,8.11
2022-09-17T21:44:11.353Z,8.12
2022-09-17T21:46:38.480Z,8.10
2022-09-17T21:49:05.466Z,8.09
2022-09-17T21:51:36.453Z,8.07
2022-09-17T21:54:08.559Z,8.07
2022-09-17T21:56:35.374Z,8.02
2022-09-17T21:59:06.233Z,8.00
2022-09-17T22:01:42.135Z,7.98
2022-09-17T22:04:12.479Z,7.94
2022-09-17T22:06:40.073Z,7.92
2022-09-17T22:09:08.274Z,7.90
2022-09-17T22:11:37.085Z,7.85
2022-09-17T22:14:10.934Z,7.79
2022-09-17T22:16:39.761Z,7.79
2022-09-17T22:19:07.153Z,7.77
2022-09-17T22:21:36.399Z,7.69
2022-09-17T22:24:04.419Z,7.72
2022-09-17T22:26:34.298Z,7.73
2022-09-17T22:29:03.448Z,7.71
2022-09-17T22:31:30.266Z,7.66
2022-09-17T22:33:56.705Z,7.62
2022-09-17T22:36:25.228Z,7.62
2022-09-17T22:38:54.468Z,7.60
2022-09-17T22:41:29.349Z,7.54
2022-09-17T22:43:58.765Z,7.57
2022-09-17T22:46:27.791Z,7.60
2022-09-17T22:48:54.661Z,7.59
2022-09-17T22:51:21.233Z,7.58
2022-09-17T22:53:47.695Z,7.58
2022-09-17T22:56:17.249Z,7.60
2022-09-17T22:58:44.317Z,7.58
2022-09-17T23:01:13.827Z,7.63
2022-09-17T23:03:40.745Z,7.67
2022-09-17T23:06:12.271Z,7.68
2022-09-17T23:08:39.391Z,7.70
2022-09-17T23:11:08.624Z,7.75
2022-09-17T23:13:35.736Z,7.80
2022-09-17T23:16:08.059Z,7.82
2022-09-17T23:18:35.977Z,7.90
2022-09-17T23:21:08.459Z,7.93
2022-09-17T23:23:36.014Z,8.00
2022-09-17T23:26:04.837Z,8.05
2022-09-17T23:28:31.337Z,8.06
2022-09-17T23:30:57.874Z,8.09
2022-09-17T23:33:24.213Z,8.15
2022-09-17T23:35:50.543Z,8.19
2022-09-17T23:38:16.856Z,8.20
2022-09-17T23:40:43.247Z,8.24
2022-09-17T23:43:09.584Z,8.26
2022-09-17T23:45:35.954Z,8.29
2022-09-17T23:48:02.316Z,8.31
2022-09-17T23:50:28.714Z,8.35
2022-09-17T23:52:55.048Z,8.34
2022-09-17T23:55:21.450Z,8.37
2022-09-17T23:57:47.795Z,8.39
